Belwood, North Carolina
Current Conditions -  °F | °C
As of 11:35 PM on Saturday 22 Nov 2014 (Local Time) from KEHO Reporting Station
Overcast Overcast  
Wind Chill: 42°   Ceiling: 5000
Heat Index: 42°   Visibility: 10mi
Dew Point: 25°   Wind: 0mph
Humidity: 51%   Direction: NA
Pressure: 30.3"   Gusts: NA
Location:  35.4647°N, 81.5349°W
Report Text: KEHO 230435Z AUTO 00000KT 10SM OVC050 06/M04 A3030 RMK AO2 T00571037
Loading
Personal Weather Stations






























Interactive Weather Map New forecast layout! Learn more

10-Day Weather Forecast

Advertisements
Track Severe Weather on mobile